sensor_id;sensor_type;location;lat;lon;timestamp;temperature;humidity
1277;DHT22;631;51.024;13.826;2023-03-14T00:01:24;10.90;99.90
1277;DHT22;631;51.024;13.826;2023-03-14T00:03:50;10.90;99.90
1277;DHT22;631;51.024;13.826;2023-03-14T00:06:16;10.90;99.90
1277;DHT22;631;51.024;13.826;2023-03-14T00:08:43;10.90;99.90
1277;DHT22;631;51.024;13.826;2023-03-14T00:11:18;10.90;99.90
1277;DHT22;631;51.024;13.826;2023-03-14T00:13:49;10.80;99.90
1277;DHT22;631;51.024;13.826;2023-03-14T00:16:15;10.80;99.90
1277;DHT22;631;51.024;13.826;2023-03-14T00:18:41;10.90;99.90
1277;DHT22;631;51.024;13.826;2023-03-14T00:21:08;10.90;99.90
1277;DHT22;631;51.024;13.826;2023-03-14T00:23:36;10.80;99.90
1277;DHT22;631;51.024;13.826;2023-03-14T00:26:10;10.80;99.90
1277;DHT22;631;51.024;13.826;2023-03-14T00:28:36;10.80;99.90
1277;DHT22;631;51.024;13.826;2023-03-14T00:31:05;10.80;99.90
1277;DHT22;631;51.024;13.826;2023-03-14T00:33:31;10.80;99.90
1277;DHT22;631;51.024;13.826;2023-03-14T00:35:59;10.70;99.90
1277;DHT22;631;51.024;13.826;2023-03-14T00:38:26;10.80;99.90
1277;DHT22;631;51.024;13.826;2023-03-14T00:40:52;10.70;99.90
1277;DHT22;631;51.024;13.826;2023-03-14T00:43:18;10.70;99.90
1277;DHT22;631;51.024;13.826;2023-03-14T00:45:44;10.70;99.90
1277;DHT22;631;51.024;13.826;2023-03-14T00:48:09;10.70;99.90
1277;DHT22;631;51.024;13.826;2023-03-14T00:50:35;10.60;99.90
1277;DHT22;631;51.024;13.826;2023-03-14T00:53:00;10.60;99.90
1277;DHT22;631;51.024;13.826;2023-03-14T00:55:26;10.60;99.90
1277;DHT22;631;51.024;13.826;2023-03-14T00:57:52;10.60;99.90
1277;DHT22;631;51.024;13.826;2023-03-14T01:00:17;10.60;99.90
1277;DHT22;631;51.024;13.826;2023-03-14T01:02:43;10.60;99.90
1277;DHT22;631;51.024;13.826;2023-03-14T01:05:09;10.70;99.90
1277;DHT22;631;51.024;13.826;2023-03-14T01:07:38;10.70;99.90
1277;DHT22;631;51.024;13.826;2023-03-14T01:10:05;10.70;99.90
1277;DHT22;631;51.024;13.826;2023-03-14T01:12:31;10.60;99.90
1277;DHT22;631;51.024;13.826;2023-03-14T01:14:57;10.60;99.90
1277;DHT22;631;51.024;13.826;2023-03-14T01:17:22;10.60;99.90
1277;DHT22;631;51.024;13.826;2023-03-14T01:19:48;10.60;99.90
1277;DHT22;631;51.024;13.826;2023-03-14T01:22:14;10.60;99.90
1277;DHT22;631;51.024;13.826;2023-03-14T01:24:40;10.60;99.90
1277;DHT22;631;51.024;13.826;2023-03-14T01:27:05;10.60;99.90
1277;DHT22;631;51.024;13.826;2023-03-14T01:29:31;10.60;99.90
1277;DHT22;631;51.024;13.826;2023-03-14T01:31:56;10.60;99.90
1277;DHT22;631;51.024;13.826;2023-03-14T01:34:22;10.60;99.90
1277;DHT22;631;51.024;13.826;2023-03-14T01:36:48;10.70;99.90
1277;DHT22;631;51.024;13.826;2023-03-14T01:39:13;10.70;99.90
1277;DHT22;631;51.024;13.826;2023-03-14T01:41:40;10.70;99.90
1277;DHT22;631;51.024;13.826;2023-03-14T01:44:08;10.70;99.90
1277;DHT22;631;51.024;13.826;2023-03-14T01:46:39;10.70;99.90
1277;DHT22;631;51.024;13.826;2023-03-14T01:49:22;10.70;99.90
1277;DHT22;631;51.024;13.826;2023-03-14T01:51:51;10.70;99.90
1277;DHT22;631;51.024;13.826;2023-03-14T01:57:24;10.70;99.90
1277;DHT22;631;51.024;13.826;2023-03-14T02:02:30;10.80;99.90
1277;DHT22;631;51.024;13.826;2023-03-14T02:04:57;10.90;99.90
1277;DHT22;631;51.024;13.826;2023-03-14T02:07:45;10.90;99.90
1277;DHT22;631;51.024;13.826;2023-03-14T02:10:12;10.90;99.90
1277;DHT22;631;51.024;13.826;2023-03-14T02:12:39;10.90;99.90
1277;DHT22;631;51.024;13.826;2023-03-14T02:15:06;11.00;99.90
1277;DHT22;631;51.024;13.826;2023-03-14T02:17:31;11.00;99.90
1277;DHT22;631;51.024;13.826;2023-03-14T02:23:04;11.00;99.90
1277;DHT22;631;51.024;13.826;2023-03-14T02:25:49;10.90;99.90
1277;DHT22;631;51.024;13.826;2023-03-14T02:28:17;10.90;99.90
1277;DHT22;631;51.024;13.826;2023-03-14T02:30:43;10.90;99.90
1277;DHT22;631;51.024;13.826;2023-03-14T02:33:12;10.90;99.90
1277;DHT22;631;51.024;13.826;2023-03-14T02:38:31;10.80;99.90
1277;DHT22;631;51.024;13.826;2023-03-14T02:40:59;10.80;99.90
1277;DHT22;631;51.024;13.826;2023-03-14T02:43:24;10.80;99.90
1277;DHT22;631;51.024;13.826;2023-03-14T02:45:52;10.70;99.90
1277;DHT22;631;51.024;13.826;2023-03-14T02:48:21;10.80;99.90
1277;DHT22;631;51.024;13.826;2023-03-14T02:50:52;10.70;99.90
1277;DHT22;631;51.024;13.826;2023-03-14T02:53:28;10.70;99.90
1277;DHT22;631;51.024;13.826;2023-03-14T02:55:55;10.70;99.90
1277;DHT22;631;51.024;13.826;2023-03-14T02:58:20;10.70;99.90
1277;DHT22;631;51.024;13.826;2023-03-14T03:00:46;10.70;99.90
1277;DHT22;631;51.024;13.826;2023-03-14T03:03:13;10.80;99.90
1277;DHT22;631;51.024;13.826;2023-03-14T03:05:38;10.80;99.90
1277;DHT22;631;51.024;13.826;2023-03-14T03:08:05;10.80;99.90
1277;DHT22;631;51.024;13.826;2023-03-14T03:10:31;10.80;99.90
1277;DHT22;631;51.024;13.826;2023-03-14T03:12:57;10.80;99.90
1277;DHT22;631;51.024;13.826;2023-03-14T03:15:23;10.80;99.90
1277;DHT22;631;51.024;13.826;2023-03-14T03:17:49;10.80;99.90
1277;DHT22;631;51.024;13.826;2023-03-14T03:20:15;10.80;99.90
1277;DHT22;631;51.024;13.826;2023-03-14T03:22:41;10.80;99.90
1277;DHT22;631;51.024;13.826;2023-03-14T03:25:08;10.80;99.90
1277;DHT22;631;51.024;13.826;2023-03-14T03:27:36;10.80;99.90
1277;DHT22;631;51.024;13.826;2023-03-14T03:30:02;10.80;99.90
1277;DHT22;631;51.024;13.826;2023-03-14T03:32:28;10.80;99.90
1277;DHT22;631;51.024;13.826;2023-03-14T03:34:54;10.80;99.90
1277;DHT22;631;51.024;13.826;2023-03-14T03:37:19;10.80;99.90
1277;DHT22;631;51.024;13.826;2023-03-14T03:39:45;10.70;99.90
1277;DHT22;631;51.024;13.826;2023-03-14T03:42:11;10.70;99.90
1277;DHT22;631;51.024;13.826;2023-03-14T03:44:36;10.70;99.90
1277;DHT22;631;51.024;13.826;2023-03-14T03:47:02;10.70;99.90
1277;DHT22;631;51.024;13.826;2023-03-14T03:49:30;10.70;99.90
1277;DHT22;631;51.024;13.826;2023-03-14T03:51:56;10.70;99.90
1277;DHT22;631;51.024;13.826;2023-03-14T03:54:21;10.70;99.90
1277;DHT22;631;51.024;13.826;2023-03-14T03:56:47;10.70;99.90
1277;DHT22;631;51.024;13.826;2023-03-14T03:59:12;10.70;99.90
1277;DHT22;631;51.024;13.826;2023-03-14T04:01:38;10.70;99.90
1277;DHT22;631;51.024;13.826;2023-03-14T04:04:04;10.70;99.90
1277;DHT22;631;51.024;13.826;2023-03-14T04:06:29;10.70;99.90
1277;DHT22;631;51.024;13.826;2023-03-14T04:08:55;10.70;99.90
1277;DHT22;631;51.024;13.826;2023-03-14T04:11:21;10.70;99.90
1277;DHT22;631;51.024;13.826;2023-03-14T04:13:46;10.70;99.90
1277;DHT22;631;51.024;13.826;2023-03-14T04:16:17;10.70;99.90
1277;DHT22;631;51.024;13.826;2023-03-14T04:18:43;10.80;99.90
1277;DHT22;631;51.024;13.826;2023-03-14T04:21:09;11.10;99.90
1277;DHT22;631;51.024;13.826;2023-03-14T04:23:35;11.10;99.90
1277;DHT22;631;51.024;13.826;2023-03-14T04:26:00;11.20;99.90
1277;DHT22;631;51.024;13.826;2023-03-14T04:28:26;11.20;99.90
1277;DHT22;631;51.024;13.826;2023-03-14T04:30:51;11.20;99.90
1277;DHT22;631;51.024;13.826;2023-03-14T04:33:17;11.30;99.90
1277;DHT22;631;51.024;13.826;2023-03-14T04:35:44;11.30;99.90
1277;DHT22;631;51.024;13.826;2023-03-14T04:38:10;11.40;99.90
1277;DHT22;631;51.024;13.826;2023-03-14T04:40:40;11.50;99.90
1277;DHT22;631;51.024;13.826;2023-03-14T04:43:06;11.50;99.90
1277;DHT22;631;51.024;13.826;2023-03-14T04:45:32;11.40;99.90
1277;DHT22;631;51.024;13.826;2023-03-14T04:47:58;11.40;99.90
1277;DHT22;631;51.024;13.826;2023-03-14T04:50:23;11.40;99.90
1277;DHT22;631;51.024;13.826;2023-03-14T04:52:49;11.40;99.90
1277;DHT22;631;51.024;13.826;2023-03-14T04:55:15;11.40;99.90
1277;DHT22;631;51.024;13.826;2023-03-14T04:57:40;11.40;99.90
1277;DHT22;631;51.024;13.826;2023-03-14T05:00:07;11.40;99.90
1277;DHT22;631;51.024;13.826;2023-03-14T05:02:33;11.30;99.90
1277;DHT22;631;51.024;13.826;2023-03-14T05:04:58;11.20;99.90
1277;DHT22;631;51.024;13.826;2023-03-14T05:07:24;11.20;99.90
1277;DHT22;631;51.024;13.826;2023-03-14T05:09:50;11.20;99.90
1277;DHT22;631;51.024;13.826;2023-03-14T05:12:15;11.10;99.90
1277;DHT22;631;51.024;13.826;2023-03-14T05:14:41;11.20;99.90
1277;DHT22;631;51.024;13.826;2023-03-14T05:17:06;11.30;99.90
1277;DHT22;631;51.024;13.826;2023-03-14T05:19:32;11.40;99.90
1277;DHT22;631;51.024;13.826;2023-03-14T05:21:58;11.50;99.90
1277;DHT22;631;51.024;13.826;2023-03-14T05:24:23;11.50;99.90
1277;DHT22;631;51.024;13.826;2023-03-14T05:26:49;11.60;99.90
1277;DHT22;631;51.024;13.826;2023-03-14T05:29:14;11.70;99.90
1277;DHT22;631;51.024;13.826;2023-03-14T05:31:40;11.70;99.90
1277;DHT22;631;51.024;13.826;2023-03-14T05:34:05;11.70;99.90
1277;DHT22;631;51.024;13.826;2023-03-14T05:36:31;11.90;99.90
1277;DHT22;631;51.024;13.826;2023-03-14T05:38:57;11.90;99.90
1277;DHT22;631;51.024;13.826;2023-03-14T05:41:22;11.90;99.90
1277;DHT22;631;51.024;13.826;2023-03-14T05:43:48;11.80;99.90
1277;DHT22;631;51.024;13.826;2023-03-14T05:46:13;11.80;99.90
1277;DHT22;631;51.024;13.826;2023-03-14T05:48:39;11.90;99.90
1277;DHT22;631;51.024;13.826;2023-03-14T05:51:05;11.80;99.90
1277;DHT22;631;51.024;13.826;2023-03-14T05:53:31;11.80;99.90
1277;DHT22;631;51.024;13.826;2023-03-14T05:55:56;11.70;99.90
1277;DHT22;631;51.024;13.826;2023-03-14T05:58:22;11.80;99.90
1277;DHT22;631;51.024;13.826;2023-03-14T06:00:48;11.80;99.90
1277;DHT22;631;51.024;13.826;2023-03-14T06:03:14;11.80;99.90
1277;DHT22;631;51.024;13.826;2023-03-14T06:05:40;11.80;99.90
1277;DHT22;631;51.024;13.826;2023-03-14T06:08:05;11.80;99.90
1277;DHT22;631;51.024;13.826;2023-03-14T06:10:31;11.80;99.90
1277;DHT22;631;51.024;13.826;2023-03-14T06:12:57;11.70;99.90
1277;DHT22;631;51.024;13.826;2023-03-14T06:15:22;11.60;99.90
1277;DHT22;631;51.024;13.826;2023-03-14T06:17:48;11.60;99.90
1277;DHT22;631;51.024;13.826;2023-03-14T06:20:14;11.60;99.90
1277;DHT22;631;51.024;13.826;2023-03-14T06:22:39;11.50;99.90
1277;DHT22;631;51.024;13.826;2023-03-14T06:25:06;11.50;99.90
1277;DHT22;631;51.024;13.826;2023-03-14T06:27:32;11.50;99.90
1277;DHT22;631;51.024;13.826;2023-03-14T06:29:58;11.60;99.90
1277;DHT22;631;51.024;13.826;2023-03-14T06:32:24;11.70;99.90
1277;DHT22;631;51.024;13.826;2023-03-14T06:34:50;11.70;99.90
1277;DHT22;631;51.024;13.826;2023-03-14T06:37:15;11.70;99.90
1277;DHT22;631;51.024;13.826;2023-03-14T06:39:41;11.80;99.90
1277;DHT22;631;51.024;13.826;2023-03-14T06:42:07;11.90;99.90
1277;DHT22;631;51.024;13.826;2023-03-14T06:44:32;11.90;99.90
1277;DHT22;631;51.024;13.826;2023-03-14T06:46:58;11.90;99.90
1277;DHT22;631;51.024;13.826;2023-03-14T06:49:23;12.00;99.90
1277;DHT22;631;51.024;13.826;2023-03-14T06:51:49;12.00;99.90
1277;DHT22;631;51.024;13.826;2023-03-14T06:54:15;12.00;99.90
1277;DHT22;631;51.024;13.826;2023-03-14T06:56:40;11.90;99.90
1277;DHT22;631;51.024;13.826;2023-03-14T06:59:06;11.90;99.90
1277;DHT22;631;51.024;13.826;2023-03-14T07:01:32;12.00;99.90
1277;DHT22;631;51.024;13.826;2023-03-14T07:03:58;12.00;99.90
1277;DHT22;631;51.024;13.826;2023-03-14T07:06:24;12.00;99.90
1277;DHT22;631;51.024;13.826;2023-03-14T07:08:50;12.10;99.90
1277;DHT22;631;51.024;13.826;2023-03-14T07:11:16;12.20;99.90
1277;DHT22;631;51.024;13.826;2023-03-14T07:13:41;12.30;99.90
1277;DHT22;631;51.024;13.826;2023-03-14T07:16:08;12.20;99.90
1277;DHT22;631;51.024;13.826;2023-03-14T07:18:34;12.20;99.90
1277;DHT22;631;51.024;13.826;2023-03-14T07:20:59;12.10;99.90
1277;DHT22;631;51.024;13.826;2023-03-14T07:23:25;12.10;99.90
1277;DHT22;631;51.024;13.826;2023-03-14T07:25:51;12.20;99.90
1277;DHT22;631;51.024;13.826;2023-03-14T07:28:18;12.20;99.90
1277;DHT22;631;51.024;13.826;2023-03-14T07:30:46;12.10;99.90
1277;DHT22;631;51.024;13.826;2023-03-14T07:33:12;12.20;99.90
1277;DHT22;631;51.024;13.826;2023-03-14T07:35:37;12.30;99.90
1277;DHT22;631;51.024;13.826;2023-03-14T07:38:03;12.30;99.90
1277;DHT22;631;51.024;13.826;2023-03-14T07:40:29;12.30;99.90
1277;DHT22;631;51.024;13.826;2023-03-14T07:42:55;12.40;99.90
1277;DHT22;631;51.024;13.826;2023-03-14T07:45:21;12.40;99.90
1277;DHT22;631;51.024;13.826;2023-03-14T07:47:46;12.50;99.90
1277;DHT22;631;51.024;13.826;2023-03-14T07:50:12;12.40;99.90
1277;DHT22;631;51.024;13.826;2023-03-14T07:52:37;12.50;99.90
1277;DHT22;631;51.024;13.826;2023-03-14T07:55:03;12.50;99.90
1277;DHT22;631;51.024;13.826;2023-03-14T07:57:29;12.50;99.90
1277;DHT22;631;51.024;13.826;2023-03-14T07:59:55;12.50;99.90
1277;DHT22;631;51.024;13.826;2023-03-14T08:02:20;12.50;99.90
1277;DHT22;631;51.024;13.826;2023-03-14T08:04:47;12.50;99.90
1277;DHT22;631;51.024;13.826;2023-03-14T08:07:13;12.60;99.90
1277;DHT22;631;51.024;13.826;2023-03-14T08:09:38;12.40;99.90
1277;DHT22;631;51.024;13.826;2023-03-14T08:12:04;12.50;99.90
1277;DHT22;631;51.024;13.826;2023-03-14T08:14:30;12.50;99.90
1277;DHT22;631;51.024;13.826;2023-03-14T08:16:58;12.50;99.90
1277;DHT22;631;51.024;13.826;2023-03-14T08:19:24;12.70;99.90
1277;DHT22;631;51.024;13.826;2023-03-14T08:21:50;12.70;99.90
1277;DHT22;631;51.024;13.826;2023-03-14T08:24:16;12.70;99.90
1277;DHT22;631;51.024;13.826;2023-03-14T08:26:41;12.80;99.90
1277;DHT22;631;51.024;13.826;2023-03-14T08:29:07;12.80;99.90
1277;DHT22;631;51.024;13.826;2023-03-14T08:31:34;12.90;99.90
1277;DHT22;631;51.024;13.826;2023-03-14T08:34:01;12.90;99.90
1277;DHT22;631;51.024;13.826;2023-03-14T08:36:27;13.00;99.90
1277;DHT22;631;51.024;13.826;2023-03-14T08:38:53;13.00;99.90
1277;DHT22;631;51.024;13.826;2023-03-14T08:41:18;13.00;99.90
1277;DHT22;631;51.024;13.826;2023-03-14T08:43:44;13.10;99.90
1277;DHT22;631;51.024;13.826;2023-03-14T08:46:10;13.30;99.90
1277;DHT22;631;51.024;13.826;2023-03-14T08:48:35;13.40;99.90
1277;DHT22;631;51.024;13.826;2023-03-14T08:51:06;13.50;99.90
1277;DHT22;631;51.024;13.826;2023-03-14T08:53:32;13.60;99.90
1277;DHT22;631;51.024;13.826;2023-03-14T08:55:58;13.80;99.90
1277;DHT22;631;51.024;13.826;2023-03-14T08:58:23;13.90;99.70
1277;DHT22;631;51.024;13.826;2023-03-14T09:00:49;13.90;98.70
1277;DHT22;631;51.024;13.826;2023-03-14T09:03:15;13.90;98.90
1277;DHT22;631;51.024;13.826;2023-03-14T09:05:40;13.80;99.70
1277;DHT22;631;51.024;13.826;2023-03-14T09:08:06;13.90;99.70
1277;DHT22;631;51.024;13.826;2023-03-14T09:10:32;13.70;98.00
1277;DHT22;631;51.024;13.826;2023-03-14T09:12:57;13.60;97.20
1277;DHT22;631;51.024;13.826;2023-03-14T09:15:23;13.60;98.30
1277;DHT22;631;51.024;13.826;2023-03-14T09:17:49;13.60;98.40
1277;DHT22;631;51.024;13.826;2023-03-14T09:20:15;13.60;98.90
1277;DHT22;631;51.024;13.826;2023-03-14T09:22:41;13.60;99.30
1277;DHT22;631;51.024;13.826;2023-03-14T09:25:07;13.80;99.50
1277;DHT22;631;51.024;13.826;2023-03-14T09:27:32;13.80;99.40
1277;DHT22;631;51.024;13.826;2023-03-14T09:29:58;14.00;99.30
1277;DHT22;631;51.024;13.826;2023-03-14T09:32:24;14.20;98.20
1277;DHT22;631;51.024;13.826;2023-03-14T09:34:49;14.30;98.60
1277;DHT22;631;51.024;13.826;2023-03-14T09:37:15;14.40;98.70
1277;DHT22;631;51.024;13.826;2023-03-14T09:39:41;14.30;97.90
1277;DHT22;631;51.024;13.826;2023-03-14T09:45:00;14.30;97.40
1277;DHT22;631;51.024;13.826;2023-03-14T09:47:28;14.00;98.60
1277;DHT22;631;51.024;13.826;2023-03-14T09:49:54;14.10;99.00
1277;DHT22;631;51.024;13.826;2023-03-14T09:52:35;14.10;99.10
1277;DHT22;631;51.024;13.826;2023-03-14T09:55:11;14.10;98.90
1277;DHT22;631;51.024;13.826;2023-03-14T09:57:39;14.10;98.50
1277;DHT22;631;51.024;13.826;2023-03-14T10:00:18;14.10;99.10
1277;DHT22;631;51.024;13.826;2023-03-14T10:02:53;14.10;98.20
1277;DHT22;631;51.024;13.826;2023-03-14T10:05:22;14.00;96.30
1277;DHT22;631;51.024;13.826;2023-03-14T10:07:48;13.90;96.40
1277;DHT22;631;51.024;13.826;2023-03-14T10:10:19;13.90;97.90
1277;DHT22;631;51.024;13.826;2023-03-14T10:12:47;13.90;97.50
1277;DHT22;631;51.024;13.826;2023-03-14T10:15:16;13.80;97.50
1277;DHT22;631;51.024;13.826;2023-03-14T10:17:48;13.90;97.40
1277;DHT22;631;51.024;13.826;2023-03-14T10:20:39;13.80;95.80
1277;DHT22;631;51.024;13.826;2023-03-14T10:25:48;13.60;96.10
1277;DHT22;631;51.024;13.826;2023-03-14T10:28:38;13.60;96.60
1277;DHT22;631;51.024;13.826;2023-03-14T10:31:04;13.60;96.00
1277;DHT22;631;51.024;13.826;2023-03-14T10:33:32;13.70;96.30
1277;DHT22;631;51.024;13.826;2023-03-14T10:36:01;13.70;95.40
1277;DHT22;631;51.024;13.826;2023-03-14T10:38:29;13.80;97.50
1277;DHT22;631;51.024;13.826;2023-03-14T10:40:56;13.70;95.60
1277;DHT22;631;51.024;13.826;2023-03-14T10:43:42;13.70;95.70
1277;DHT22;631;51.024;13.826;2023-03-14T10:46:18;13.70;95.80
1277;DHT22;631;51.024;13.826;2023-03-14T10:48:45;13.80;96.00
1277;DHT22;631;51.024;13.826;2023-03-14T10:56:24;13.70;95.10
1277;DHT22;631;51.024;13.826;2023-03-14T10:58:55;13.70;94.60
1277;DHT22;631;51.024;13.826;2023-03-14T11:01:25;13.80;95.20
1277;DHT22;631;51.024;13.826;2023-03-14T11:04:13;13.80;95.20
1277;DHT22;631;51.024;13.826;2023-03-14T11:09:20;13.80;94.30
1277;DHT22;631;51.024;13.826;2023-03-14T11:11:48;13.80;95.00
1277;DHT22;631;51.024;13.826;2023-03-14T11:14:27;13.80;95.50
1277;DHT22;631;51.024;13.826;2023-03-14T11:17:30;13.90;95.00
1277;DHT22;631;51.024;13.826;2023-03-14T11:23:13;14.00;94.70
1277;DHT22;631;51.024;13.826;2023-03-14T11:26:11;14.10;95.10
1277;DHT22;631;51.024;13.826;2023-03-14T11:28:43;14.20;95.40
1277;DHT22;631;51.024;13.826;2023-03-14T11:31:16;14.30;94.40
1277;DHT22;631;51.024;13.826;2023-03-14T11:36:15;14.30;93.30
1277;DHT22;631;51.024;13.826;2023-03-14T11:38:50;14.30;93.70
1277;DHT22;631;51.024;13.826;2023-03-14T11:41:23;14.20;93.50
1277;DHT22;631;51.024;13.826;2023-03-14T11:43:57;14.50;95.30
1277;DHT22;631;51.024;13.826;2023-03-14T11:46:28;14.90;92.40
1277;DHT22;631;51.024;13.826;2023-03-14T11:51:27;14.90;91.70
1277;DHT22;631;51.024;13.826;2023-03-14T11:54:18;15.00;91.80
1277;DHT22;631;51.024;13.826;2023-03-14T11:59:24;14.90;88.20
1277;DHT22;631;51.024;13.826;2023-03-14T12:02:03;14.90;90.00
1277;DHT22;631;51.024;13.826;2023-03-14T12:04:47;14.80;91.40
1277;DHT22;631;51.024;13.826;2023-03-14T12:07:21;14.70;91.00
1277;DHT22;631;51.024;13.826;2023-03-14T12:09:49;14.50;89.90
1277;DHT22;631;51.024;13.826;2023-03-14T12:12:24;14.30;90.70
1277;DHT22;631;51.024;13.826;2023-03-14T12:14:58;14.30;91.00
1277;DHT22;631;51.024;13.826;2023-03-14T12:17:36;14.30;90.70
1277;DHT22;631;51.024;13.826;2023-03-14T12:30:30;15.60;86.40
1277;DHT22;631;51.024;13.826;2023-03-14T12:33:18;15.90;85.50
1277;DHT22;631;51.024;13.826;2023-03-14T12:35:47;16.10;83.70
1277;DHT22;631;51.024;13.826;2023-03-14T12:38:23;16.10;83.70
1277;DHT22;631;51.024;13.826;2023-03-14T12:41:19;16.00;85.20
1277;DHT22;631;51.024;13.826;2023-03-14T12:43:46;16.20;88.50
1277;DHT22;631;51.024;13.826;2023-03-14T12:46:24;16.60;88.70
1277;DHT22;631;51.024;13.826;2023-03-14T12:51:36;16.70;81.90
1277;DHT22;631;51.024;13.826;2023-03-14T12:54:33;16.50;80.80
1277;DHT22;631;51.024;13.826;2023-03-14T12:57:20;16.30;82.50
1277;DHT22;631;51.024;13.826;2023-03-14T12:59:58;16.10;83.80
1277;DHT22;631;51.024;13.826;2023-03-14T13:02:27;16.10;83.70
1277;DHT22;631;51.024;13.826;2023-03-14T13:07:35;16.60;78.80
1277;DHT22;631;51.024;13.826;2023-03-14T13:10:15;17.40;75.90
1277;DHT22;631;51.024;13.826;2023-03-14T13:15:41;18.00;66.20
1277;DHT22;631;51.024;13.826;2023-03-14T13:18:11;17.60;64.30
1277;DHT22;631;51.024;13.826;2023-03-14T13:20:54;17.20;64.70
1277;DHT22;631;51.024;13.826;2023-03-14T13:23:28;17.30;67.10
1277;DHT22;631;51.024;13.826;2023-03-14T13:25:54;17.60;67.00
1277;DHT22;631;51.024;13.826;2023-03-14T13:28:20;17.60;65.60
1277;DHT22;631;51.024;13.826;2023-03-14T13:30:48;17.00;67.90
1277;DHT22;631;51.024;13.826;2023-03-14T13:33:19;17.20;69.00
1277;DHT22;631;51.024;13.826;2023-03-14T13:36:04;17.10;69.50
1277;DHT22;631;51.024;13.826;2023-03-14T13:38:33;16.80;71.10
1277;DHT22;631;51.024;13.826;2023-03-14T13:41:03;17.20;71.40
1277;DHT22;631;51.024;13.826;2023-03-14T13:43:32;16.90;70.10
1277;DHT22;631;51.024;13.826;2023-03-14T13:46:03;17.40;70.00
1277;DHT22;631;51.024;13.826;2023-03-14T13:48:31;17.30;65.30
1277;DHT22;631;51.024;13.826;2023-03-14T13:51:05;17.60;69.40
1277;DHT22;631;51.024;13.826;2023-03-14T13:53:33;17.90;64.80
1277;DHT22;631;51.024;13.826;2023-03-14T13:56:09;18.60;64.00
1277;DHT22;631;51.024;13.826;2023-03-14T13:58:37;18.50;60.30
1277;DHT22;631;51.024;13.826;2023-03-14T14:01:23;18.20;60.40
1277;DHT22;631;51.024;13.826;2023-03-14T14:03:51;18.10;61.50
1277;DHT22;631;51.024;13.826;2023-03-14T14:08:53;17.10;65.40
1277;DHT22;631;51.024;13.826;2023-03-14T14:16:59;16.20;67.60
1277;DHT22;631;51.024;13.826;2023-03-14T14:19:28;16.10;70.70
1277;DHT22;631;51.024;13.826;2023-03-14T14:21:56;16.00;71.20
1277;DHT22;631;51.024;13.826;2023-03-14T14:24:24;15.80;72.80
1277;DHT22;631;51.024;13.826;2023-03-14T14:26:58;15.50;74.80
1277;DHT22;631;51.024;13.826;2023-03-14T14:29:32;15.50;77.20
1277;DHT22;631;51.024;13.826;2023-03-14T14:38:02;16.80;73.40
1277;DHT22;631;51.024;13.826;2023-03-14T14:40:19;17.10;72.90
1277;DHT22;631;51.024;13.826;2023-03-14T14:42:45;17.40;65.90
1277;DHT22;631;51.024;13.826;2023-03-14T14:45:18;18.00;69.10
1277;DHT22;631;51.024;13.826;2023-03-14T14:47:57;18.60;64.20
1277;DHT22;631;51.024;13.826;2023-03-14T14:50:29;19.30;59.60
1277;DHT22;631;51.024;13.826;2023-03-14T14:53:01;18.20;59.00
1277;DHT22;631;51.024;13.826;2023-03-14T14:55:38;17.20;62.30
1277;DHT22;631;51.024;13.826;2023-03-14T14:58:39;16.80;65.90
1277;DHT22;631;51.024;13.826;2023-03-14T15:01:13;16.70;67.60
1277;DHT22;631;51.024;13.826;2023-03-14T15:03:42;16.50;67.90
1277;DHT22;631;51.024;13.826;2023-03-14T15:06:10;16.10;67.50
1277;DHT22;631;51.024;13.826;2023-03-14T15:08:37;16.10;69.10
1277;DHT22;631;51.024;13.826;2023-03-14T15:11:03;16.10;68.70
1277;DHT22;631;51.024;13.826;2023-03-14T15:13:28;16.50;72.10
1277;DHT22;631;51.024;13.826;2023-03-14T15:15:54;17.10;68.50
1277;DHT22;631;51.024;13.826;2023-03-14T15:18:24;17.40;67.30
1277;DHT22;631;51.024;13.826;2023-03-14T15:20:51;18.10;67.40
1277;DHT22;631;51.024;13.826;2023-03-14T15:23:19;17.80;64.10
1277;DHT22;631;51.024;13.826;2023-03-14T15:25:45;17.70;65.50
1277;DHT22;631;51.024;13.826;2023-03-14T15:28:24;17.10;64.80
1277;DHT22;631;51.024;13.826;2023-03-14T15:30:54;16.60;65.10
1277;DHT22;631;51.024;13.826;2023-03-14T15:33:21;16.30;67.40
1277;DHT22;631;51.024;13.826;2023-03-14T15:35:47;16.00;70.30
1277;DHT22;631;51.024;13.826;2023-03-14T15:38:15;16.00;72.00
1277;DHT22;631;51.024;13.826;2023-03-14T15:40:41;15.80;71.30
1277;DHT22;631;51.024;13.826;2023-03-14T15:43:07;15.60;72.30
1277;DHT22;631;51.024;13.826;2023-03-14T15:45:33;15.40;73.20
1277;DHT22;631;51.024;13.826;2023-03-14T15:47:59;15.20;73.30
1277;DHT22;631;51.024;13.826;2023-03-14T15:50:25;15.20;75.70
1277;DHT22;631;51.024;13.826;2023-03-14T15:52:51;15.10;76.00
1277;DHT22;631;51.024;13.826;2023-03-14T15:55:17;14.80;75.40
1277;DHT22;631;51.024;13.826;2023-03-14T15:57:43;14.70;76.90
1277;DHT22;631;51.024;13.826;2023-03-14T16:00:15;14.60;79.10
1277;DHT22;631;51.024;13.826;2023-03-14T16:02:42;14.60;79.70
1277;DHT22;631;51.024;13.826;2023-03-14T16:05:11;14.60;80.50
1277;DHT22;631;51.024;13.826;2023-03-14T16:07:37;14.50;81.00
1277;DHT22;631;51.024;13.826;2023-03-14T16:10:04;14.50;82.90
1277;DHT22;631;51.024;13.826;2023-03-14T16:12:31;14.50;84.40
1277;DHT22;631;51.024;13.826;2023-03-14T16:14:56;14.50;85.20
1277;DHT22;631;51.024;13.826;2023-03-14T16:17:22;14.40;85.80
1277;DHT22;631;51.024;13.826;2023-03-14T16:19:47;14.40;87.40
1277;DHT22;631;51.024;13.826;2023-03-14T16:22:13;14.40;87.40
1277;DHT22;631;51.024;13.826;2023-03-14T16:24:39;14.40;88.80
1277;DHT22;631;51.024;13.826;2023-03-14T16:27:04;14.40;90.00
1277;DHT22;631;51.024;13.826;2023-03-14T16:29:30;14.30;90.60
1277;DHT22;631;51.024;13.826;2023-03-14T16:31:56;14.10;94.20
1277;DHT22;631;51.024;13.826;2023-03-14T16:34:22;13.80;98.20
1277;DHT22;631;51.024;13.826;2023-03-14T16:36:47;13.40;99.90
1277;DHT22;631;51.024;13.826;2023-03-14T16:39:16;13.00;99.90
1277;DHT22;631;51.024;13.826;2023-03-14T16:41:42;12.50;99.90
1277;DHT22;631;51.024;13.826;2023-03-14T16:44:08;12.30;99.90
1277;DHT22;631;51.024;13.826;2023-03-14T16:46:33;11.90;99.90
1277;DHT22;631;51.024;13.826;2023-03-14T16:49:01;11.60;99.90
1277;DHT22;631;51.024;13.826;2023-03-14T16:51:26;11.50;99.90
1277;DHT22;631;51.024;13.826;2023-03-14T16:53:52;11.30;99.90
1277;DHT22;631;51.024;13.826;2023-03-14T16:56:20;10.60;99.90
1277;DHT22;631;51.024;13.826;2023-03-14T16:58:47;9.70;99.90
1277;DHT22;631;51.024;13.826;2023-03-14T17:01:14;9.20;99.90
1277;DHT22;631;51.024;13.826;2023-03-14T17:03:44;8.70;99.90
1277;DHT22;631;51.024;13.826;2023-03-14T17:06:19;8.40;99.90
1277;DHT22;631;51.024;13.826;2023-03-14T17:08:45;8.20;99.90
1277;DHT22;631;51.024;13.826;2023-03-14T17:11:11;7.80;99.90
1277;DHT22;631;51.024;13.826;2023-03-14T17:13:37;7.60;99.90
1277;DHT22;631;51.024;13.826;2023-03-14T17:16:03;7.50;99.90
1277;DHT22;631;51.024;13.826;2023-03-14T17:18:30;7.30;99.90